Louise, MS (39097)

5:17 AM CDT on July 31, 2016 (GMT -0500)
Mid Delta Regional | | Change Station

Elev 131 ft 33.48 °N, 90.99 °W | Updated 24 minutes ago

Clear
Clear
73 °F
Feels Like 73 °F
N
0
Wind Variable Wind from North

Today
High -- | Low -- °F
--% Chance of Precip.
Yesterday
High -- | Low -- °F
Precip. -- in
Pressure 30.00 in
Visibility 10.0 miles
Clouds Clear
Dew Point 70 °F
Humidity 90%
Rainfall 0.00 in
Snow Depth Not available.
6:15 AM 8:01 PM
Waning Crescent, 7% visible
METAR KGLH 310953Z AUTO 00000KT 10SM CLR 23/21 A2999 RMK AO2 SLP158 T02280211 PNO $
Pressure 30.00 in
Visibility 10.0 miles
Clouds Clear
Dew Point 70 °F
Humidity 90%
Rainfall 0.00 in
Snow Depth Not available.
6:15 AM 8:01 PM
Waning Crescent, 7% visible
METAR KGLH 310953Z AUTO 00000KT 10SM CLR 23/21 A2999 RMK AO2 SLP158 T02280211 PNO $

10-Day Weather Forecast

Almanac

Astronomy

Jul. 31, 2016 Rise Set
Actual Time
Civil Twilight
Nautical Twilight
Astronomical Twilight
Moon
Length of Visible Light
Length of Day
Tomorrow will be .
, % of the Moon is Illuminated

Today's Extremes

State Highs State Lows

Community

WunderPhotos

Upload Photos

1,928,778 photos uploaded!

WunderBlog® & News

Nearby

Air Quality

  Air Quality AQ Index Pollutant
Not available.

Snow Depth

Station Depth Elevation

Earthquake Activity

City Distance Mag. Time & Date
Minimum magnitude displayed is 2.5.

Coastal Water Temperatures

Place Temperature

Stations

Nearby Weather Stations

Station Location Temp. Windchill Dew Point Humidity Wind Precip. Elev Updated Type
                   

Watches & Warnings

There are currently no watches in effect.